sensor_id;sensor_type;location;lat;lon;timestamp;P1;durP1;ratioP1;P2;durP2;ratioP2
71162;SDS011;58858;50.948;6.566;2023-04-06T00:01:23;17.45;;;10.68;;
71162;SDS011;58858;50.948;6.566;2023-04-06T00:11:24;15.38;;;10.18;;
71162;SDS011;58858;50.948;6.566;2023-04-06T00:21:26;19.55;;;9.15;;
71162;SDS011;58858;50.948;6.566;2023-04-06T00:31:27;14.25;;;8.40;;
71162;SDS011;58858;50.948;6.566;2023-04-06T00:41:28;14.70;;;9.27;;
71162;SDS011;58858;50.948;6.566;2023-04-06T00:51:29;15.43;;;9.90;;
71162;SDS011;58858;50.948;6.566;2023-04-06T01:01:30;16.88;;;9.70;;
71162;SDS011;58858;50.948;6.566;2023-04-06T01:11:37;14.77;;;8.90;;
71162;SDS011;58858;50.948;6.566;2023-04-06T01:21:42;14.35;;;8.68;;
71162;SDS011;58858;50.948;6.566;2023-04-06T01:32:02;15.95;;;9.27;;
71162;SDS011;58858;50.948;6.566;2023-04-06T01:42:08;13.63;;;8.60;;
71162;SDS011;58858;50.948;6.566;2023-04-06T01:52:13;16.13;;;8.73;;
71162;SDS011;58858;50.948;6.566;2023-04-06T02:02:18;16.02;;;10.48;;
71162;SDS011;58858;50.948;6.566;2023-04-06T02:12:28;16.88;;;8.68;;
71162;SDS011;58858;50.948;6.566;2023-04-06T02:22:29;18.50;;;9.02;;
71162;SDS011;58858;50.948;6.566;2023-04-06T02:32:31;13.60;;;8.85;;
71162;SDS011;58858;50.948;6.566;2023-04-06T02:42:32;17.02;;;9.95;;
71162;SDS011;58858;50.948;6.566;2023-04-06T02:52:34;16.80;;;9.80;;
71162;SDS011;58858;50.948;6.566;2023-04-06T03:02:36;20.02;;;10.00;;
71162;SDS011;58858;50.948;6.566;2023-04-06T03:12:43;15.30;;;10.48;;
71162;SDS011;58858;50.948;6.566;2023-04-06T03:22:53;14.65;;;9.15;;
71162;SDS011;58858;50.948;6.566;2023-04-06T03:32:59;15.23;;;8.23;;
71162;SDS011;58858;50.948;6.566;2023-04-06T03:43:03;13.47;;;7.23;;
71162;SDS011;58858;50.948;6.566;2023-04-06T03:53:09;14.07;;;8.73;;
71162;SDS011;58858;50.948;6.566;2023-04-06T04:03:11;18.20;;;10.88;;
71162;SDS011;58858;50.948;6.566;2023-04-06T04:13:12;18.55;;;8.73;;
71162;SDS011;58858;50.948;6.566;2023-04-06T04:23:15;13.15;;;8.18;;
71162;SDS011;58858;50.948;6.566;2023-04-06T04:33:16;14.57;;;8.57;;
71162;SDS011;58858;50.948;6.566;2023-04-06T04:43:18;17.08;;;8.55;;
71162;SDS011;58858;50.948;6.566;2023-04-06T04:53:19;18.90;;;9.88;;
71162;SDS011;58858;50.948;6.566;2023-04-06T05:03:22;20.40;;;9.40;;
71162;SDS011;58858;50.948;6.566;2023-04-06T05:13:31;14.25;;;8.27;;
71162;SDS011;58858;50.948;6.566;2023-04-06T05:23:34;14.05;;;9.00;;
71162;SDS011;58858;50.948;6.566;2023-04-06T05:33:37;14.45;;;8.65;;
71162;SDS011;58858;50.948;6.566;2023-04-06T05:43:44;19.85;;;10.00;;
71162;SDS011;58858;50.948;6.566;2023-04-06T05:53:46;19.35;;;9.13;;
71162;SDS011;58858;50.948;6.566;2023-04-06T06:03:47;16.88;;;8.82;;
71162;SDS011;58858;50.948;6.566;2023-04-06T06:13:49;17.77;;;9.23;;
71162;SDS011;58858;50.948;6.566;2023-04-06T06:23:50;15.18;;;9.68;;
71162;SDS011;58858;50.948;6.566;2023-04-06T06:33:54;16.17;;;9.20;;
71162;SDS011;58858;50.948;6.566;2023-04-06T06:43:56;17.15;;;9.35;;
71162;SDS011;58858;50.948;6.566;2023-04-06T06:53:57;15.52;;;9.13;;
71162;SDS011;58858;50.948;6.566;2023-04-06T07:03:58;15.95;;;8.73;;
71162;SDS011;58858;50.948;6.566;2023-04-06T07:13:59;13.95;;;8.55;;
71162;SDS011;58858;50.948;6.566;2023-04-06T07:24:01;14.80;;;8.57;;
71162;SDS011;58858;50.948;6.566;2023-04-06T07:34:02;12.48;;;8.18;;
71162;SDS011;58858;50.948;6.566;2023-04-06T07:44:03;16.73;;;8.10;;
71162;SDS011;58858;50.948;6.566;2023-04-06T07:54:05;16.08;;;8.55;;
71162;SDS011;58858;50.948;6.566;2023-04-06T08:04:07;14.13;;;7.20;;
71162;SDS011;58858;50.948;6.566;2023-04-06T08:14:08;16.40;;;9.95;;
71162;SDS011;58858;50.948;6.566;2023-04-06T08:24:09;11.13;;;7.55;;
71162;SDS011;58858;50.948;6.566;2023-04-06T08:34:10;16.10;;;8.35;;
71162;SDS011;58858;50.948;6.566;2023-04-06T08:44:11;16.65;;;9.00;;
71162;SDS011;58858;50.948;6.566;2023-04-06T08:54:12;14.25;;;8.32;;
71162;SDS011;58858;50.948;6.566;2023-04-06T09:04:14;11.80;;;7.90;;
71162;SDS011;58858;50.948;6.566;2023-04-06T09:14:15;16.00;;;9.55;;
71162;SDS011;58858;50.948;6.566;2023-04-06T09:24:17;16.40;;;9.52;;
71162;SDS011;58858;50.948;6.566;2023-04-06T09:34:25;15.90;;;8.15;;
71162;SDS011;58858;50.948;6.566;2023-04-06T09:44:26;12.75;;;8.10;;
71162;SDS011;58858;50.948;6.566;2023-04-06T09:54:31;16.25;;;8.20;;
71162;SDS011;58858;50.948;6.566;2023-04-06T10:04:36;18.17;;;8.87;;
71162;SDS011;58858;50.948;6.566;2023-04-06T10:14:44;14.60;;;8.93;;
71162;SDS011;58858;50.948;6.566;2023-04-06T10:24:45;15.30;;;8.07;;
71162;SDS011;58858;50.948;6.566;2023-04-06T10:34:47;16.85;;;9.40;;
71162;SDS011;58858;50.948;6.566;2023-04-06T10:44:49;17.85;;;10.02;;
71162;SDS011;58858;50.948;6.566;2023-04-06T10:54:50;14.55;;;8.05;;
71162;SDS011;58858;50.948;6.566;2023-04-06T11:04:55;15.20;;;8.02;;
71162;SDS011;58858;50.948;6.566;2023-04-06T11:14:58;17.45;;;8.95;;
71162;SDS011;58858;50.948;6.566;2023-04-06T11:25:07;14.68;;;7.60;;
71162;SDS011;58858;50.948;6.566;2023-04-06T11:35:24;10.20;;;7.13;;
71162;SDS011;58858;50.948;6.566;2023-04-06T11:45:25;13.30;;;7.90;;
71162;SDS011;58858;50.948;6.566;2023-04-06T11:55:26;10.23;;;6.80;;
71162;SDS011;58858;50.948;6.566;2023-04-06T12:05:28;10.20;;;6.32;;
71162;SDS011;58858;50.948;6.566;2023-04-06T12:15:29;12.85;;;5.97;;
71162;SDS011;58858;50.948;6.566;2023-04-06T12:25:30;8.18;;;5.20;;
71162;SDS011;58858;50.948;6.566;2023-04-06T12:35:34;9.32;;;3.90;;
71162;SDS011;58858;50.948;6.566;2023-04-06T12:45:35;6.97;;;4.07;;
71162;SDS011;58858;50.948;6.566;2023-04-06T12:55:36;9.85;;;6.25;;
71162;SDS011;58858;50.948;6.566;2023-04-06T13:05:44;8.77;;;4.90;;
71162;SDS011;58858;50.948;6.566;2023-04-06T13:15:49;10.77;;;4.57;;
71162;SDS011;58858;50.948;6.566;2023-04-06T13:25:58;8.15;;;5.38;;
71162;SDS011;58858;50.948;6.566;2023-04-06T13:36:03;8.57;;;5.20;;
71162;SDS011;58858;50.948;6.566;2023-04-06T13:46:06;8.18;;;6.00;;
71162;SDS011;58858;50.948;6.566;2023-04-06T13:56:09;9.95;;;5.55;;
71162;SDS011;58858;50.948;6.566;2023-04-06T14:06:11;8.75;;;5.63;;
71162;SDS011;58858;50.948;6.566;2023-04-06T14:16:12;9.50;;;5.50;;
71162;SDS011;58858;50.948;6.566;2023-04-06T14:26:13;9.70;;;5.90;;
71162;SDS011;58858;50.948;6.566;2023-04-06T14:36:15;8.27;;;5.20;;
71162;SDS011;58858;50.948;6.566;2023-04-06T14:46:17;8.15;;;5.50;;
71162;SDS011;58858;50.948;6.566;2023-04-06T14:56:19;12.52;;;6.95;;
71162;SDS011;58858;50.948;6.566;2023-04-06T15:06:21;9.40;;;6.75;;
71162;SDS011;58858;50.948;6.566;2023-04-06T15:16:22;14.32;;;5.70;;
71162;SDS011;58858;50.948;6.566;2023-04-06T15:26:23;15.18;;;7.75;;
71162;SDS011;58858;50.948;6.566;2023-04-06T15:36:27;11.05;;;7.50;;
71162;SDS011;58858;50.948;6.566;2023-04-06T15:46:30;12.55;;;8.10;;
71162;SDS011;58858;50.948;6.566;2023-04-06T15:56:31;11.45;;;7.05;;
71162;SDS011;58858;50.948;6.566;2023-04-06T16:06:33;11.00;;;8.32;;
71162;SDS011;58858;50.948;6.566;2023-04-06T16:16:35;12.32;;;8.43;;
71162;SDS011;58858;50.948;6.566;2023-04-06T16:26:36;9.63;;;6.50;;
71162;SDS011;58858;50.948;6.566;2023-04-06T16:36:37;10.60;;;6.57;;
71162;SDS011;58858;50.948;6.566;2023-04-06T16:46:40;10.63;;;7.93;;
71162;SDS011;58858;50.948;6.566;2023-04-06T16:56:43;10.15;;;7.32;;
71162;SDS011;58858;50.948;6.566;2023-04-06T17:06:44;11.98;;;7.30;;
71162;SDS011;58858;50.948;6.566;2023-04-06T17:16:45;11.77;;;6.65;;
71162;SDS011;58858;50.948;6.566;2023-04-06T17:26:46;6.10;;;4.15;;
71162;SDS011;58858;50.948;6.566;2023-04-06T17:36:47;5.10;;;3.40;;
71162;SDS011;58858;50.948;6.566;2023-04-06T17:46:48;6.30;;;4.45;;
71162;SDS011;58858;50.948;6.566;2023-04-06T17:56:49;3.90;;;3.00;;
71162;SDS011;58858;50.948;6.566;2023-04-06T18:06:52;4.22;;;2.28;;
71162;SDS011;58858;50.948;6.566;2023-04-06T18:16:53;4.72;;;2.80;;
71162;SDS011;58858;50.948;6.566;2023-04-06T18:26:55;4.60;;;2.70;;
71162;SDS011;58858;50.948;6.566;2023-04-06T18:36:57;3.92;;;2.60;;
71162;SDS011;58858;50.948;6.566;2023-04-06T18:46:59;6.30;;;3.78;;
71162;SDS011;58858;50.948;6.566;2023-04-06T18:57:00;5.72;;;3.85;;
71162;SDS011;58858;50.948;6.566;2023-04-06T19:07:01;5.75;;;3.38;;
71162;SDS011;58858;50.948;6.566;2023-04-06T19:17:02;3.40;;;2.50;;
71162;SDS011;58858;50.948;6.566;2023-04-06T19:27:03;3.40;;;2.33;;
71162;SDS011;58858;50.948;6.566;2023-04-06T19:37:05;4.03;;;2.70;;
71162;SDS011;58858;50.948;6.566;2023-04-06T19:47:06;5.72;;;3.03;;
71162;SDS011;58858;50.948;6.566;2023-04-06T19:57:07;4.93;;;3.55;;
71162;SDS011;58858;50.948;6.566;2023-04-06T20:07:09;4.32;;;3.53;;
71162;SDS011;58858;50.948;6.566;2023-04-06T20:17:10;5.63;;;3.20;;
71162;SDS011;58858;50.948;6.566;2023-04-06T20:27:11;9.70;;;3.75;;
71162;SDS011;58858;50.948;6.566;2023-04-06T20:37:12;5.57;;;3.78;;
71162;SDS011;58858;50.948;6.566;2023-04-06T20:47:13;5.65;;;3.97;;
71162;SDS011;58858;50.948;6.566;2023-04-06T20:57:14;7.50;;;4.88;;
71162;SDS011;58858;50.948;6.566;2023-04-06T21:07:15;7.28;;;4.75;;
71162;SDS011;58858;50.948;6.566;2023-04-06T21:17:16;7.43;;;5.05;;
71162;SDS011;58858;50.948;6.566;2023-04-06T21:27:17;8.55;;;5.47;;
71162;SDS011;58858;50.948;6.566;2023-04-06T21:37:18;8.57;;;6.00;;
71162;SDS011;58858;50.948;6.566;2023-04-06T21:47:22;9.85;;;5.75;;
71162;SDS011;58858;50.948;6.566;2023-04-06T21:57:23;8.02;;;6.18;;
71162;SDS011;58858;50.948;6.566;2023-04-06T22:07:24;10.63;;;6.60;;
71162;SDS011;58858;50.948;6.566;2023-04-06T22:17:25;8.27;;;5.90;;
71162;SDS011;58858;50.948;6.566;2023-04-06T22:27:27;9.38;;;5.82;;
71162;SDS011;58858;50.948;6.566;2023-04-06T22:37:28;15.38;;;7.50;;
71162;SDS011;58858;50.948;6.566;2023-04-06T22:47:29;9.70;;;6.53;;
71162;SDS011;58858;50.948;6.566;2023-04-06T22:57:30;13.40;;;7.18;;
71162;SDS011;58858;50.948;6.566;2023-04-06T23:07:31;14.02;;;6.85;;
71162;SDS011;58858;50.948;6.566;2023-04-06T23:17:32;17.00;;;7.32;;
71162;SDS011;58858;50.948;6.566;2023-04-06T23:27:33;13.77;;;7.40;;
71162;SDS011;58858;50.948;6.566;2023-04-06T23:37:34;16.05;;;8.32;;
71162;SDS011;58858;50.948;6.566;2023-04-06T23:47:35;18.23;;;8.32;;
71162;SDS011;58858;50.948;6.566;2023-04-06T23:57:36;13.85;;;8.55;;
